Terminal Aerodrome Forecast
Issued by NWS Paducah, KY

Home | Current Version | Previous Version | Text Only | Print | Product List | Glossary On
Versions: 1 2 3 4 5 6 7 8 9 10 11 12 13 14 15 16 17 18 19 20 21 22 23
220
FTUS43 KPAH 090219 AAB
TAFPAH
TAF AMD
KPAH 090219Z 0902/0924 31013G23KT P6SM OVC035
      TEMPO 0902/0904 33008KT 4SM -SN=

USA.gov is the U.S. government's official web portal to all federal, state and local government web resources and services.